sensor_id;sensor_type;location;lat;lon;timestamp;pressure;altitude;pressure_sealevel;temperature;humidity
65173;BME280;51758;52.218;5.172;2022-10-26T00:01:02;101296.16;;;10.82;100.00
65173;BME280;51758;52.218;5.172;2022-10-26T00:03:30;101291.09;;;10.80;100.00
65173;BME280;51758;52.218;5.172;2022-10-26T00:06:03;101290.13;;;10.81;100.00
65173;BME280;51758;52.218;5.172;2022-10-26T00:08:32;101295.19;;;10.83;100.00
65173;BME280;51758;52.218;5.172;2022-10-26T00:10:59;101293.06;;;10.86;100.00
65173;BME280;51758;52.218;5.172;2022-10-26T00:13:27;101287.66;;;10.88;100.00
65173;BME280;51758;52.218;5.172;2022-10-26T00:15:55;101285.88;;;10.88;100.00
65173;BME280;51758;52.218;5.172;2022-10-26T00:18:23;101275.75;;;10.85;100.00
65173;BME280;51758;52.218;5.172;2022-10-26T00:20:51;101277.84;;;10.90;100.00
65173;BME280;51758;52.218;5.172;2022-10-26T00:23:18;101269.69;;;10.93;100.00
65173;BME280;51758;52.218;5.172;2022-10-26T00:25:54;101268.03;;;10.92;100.00
65173;BME280;51758;52.218;5.172;2022-10-26T00:28:22;101267.59;;;10.88;100.00
65173;BME280;51758;52.218;5.172;2022-10-26T00:30:50;101268.53;;;10.95;100.00
65173;BME280;51758;52.218;5.172;2022-10-26T00:33:18;101263.13;;;10.97;100.00
65173;BME280;51758;52.218;5.172;2022-10-26T00:35:46;101265.91;;;10.95;100.00
65173;BME280;51758;52.218;5.172;2022-10-26T00:38:14;101257.09;;;10.96;100.00
65173;BME280;51758;52.218;5.172;2022-10-26T00:40:42;101261.16;;;10.99;100.00
65173;BME280;51758;52.218;5.172;2022-10-26T00:43:15;101256.59;;;11.01;100.00
65173;BME280;51758;52.218;5.172;2022-10-26T00:46:01;101246.66;;;10.96;100.00
65173;BME280;51758;52.218;5.172;2022-10-26T00:48:33;101250.06;;;10.97;100.00
65173;BME280;51758;52.218;5.172;2022-10-26T00:51:05;101250.34;;;11.02;100.00
65173;BME280;51758;52.218;5.172;2022-10-26T00:53:34;101236.03;;;10.98;100.00
65173;BME280;51758;52.218;5.172;2022-10-26T00:56:03;101251.53;;;10.99;100.00
65173;BME280;51758;52.218;5.172;2022-10-26T00:58:33;101239.91;;;11.02;100.00
65173;BME280;51758;52.218;5.172;2022-10-26T01:01:02;101230.28;;;11.02;100.00
65173;BME280;51758;52.218;5.172;2022-10-26T01:03:29;101244.34;;;11.01;100.00
65173;BME280;51758;52.218;5.172;2022-10-26T01:05:58;101236.31;;;11.03;100.00
65173;BME280;51758;52.218;5.172;2022-10-26T01:08:26;101236.16;;;11.04;100.00
65173;BME280;51758;52.218;5.172;2022-10-26T01:10:55;101232.22;;;11.08;100.00
65173;BME280;51758;52.218;5.172;2022-10-26T01:13:23;101229.78;;;11.07;100.00
65173;BME280;51758;52.218;5.172;2022-10-26T01:16:02;101228.94;;;11.06;100.00
65173;BME280;51758;52.218;5.172;2022-10-26T01:18:39;101225.69;;;11.04;100.00
65173;BME280;51758;52.218;5.172;2022-10-26T01:21:28;101213.97;;;11.00;100.00
65173;BME280;51758;52.218;5.172;2022-10-26T01:24:20;101221.44;;;11.03;100.00
65173;BME280;51758;52.218;5.172;2022-10-26T01:26:58;101211.13;;;11.10;100.00
65173;BME280;51758;52.218;5.172;2022-10-26T01:29:52;101210.66;;;11.06;100.00
65173;BME280;51758;52.218;5.172;2022-10-26T01:32:31;101207.41;;;11.04;100.00
65173;BME280;51758;52.218;5.172;2022-10-26T01:35:06;101200.91;;;11.00;100.00
65173;BME280;51758;52.218;5.172;2022-10-26T01:37:37;101209.50;;;11.09;100.00
65173;BME280;51758;52.218;5.172;2022-10-26T01:40:09;101212.13;;;11.09;100.00
65173;BME280;51758;52.218;5.172;2022-10-26T01:42:47;101210.31;;;11.09;100.00
65173;BME280;51758;52.218;5.172;2022-10-26T01:45:17;101194.94;;;11.14;100.00
65173;BME280;51758;52.218;5.172;2022-10-26T01:47:47;101196.56;;;11.16;100.00
65173;BME280;51758;52.218;5.172;2022-10-26T01:50:16;101194.31;;;11.12;100.00
65173;BME280;51758;52.218;5.172;2022-10-26T01:52:48;101188.53;;;11.17;100.00
65173;BME280;51758;52.218;5.172;2022-10-26T01:55:42;101186.41;;;11.21;100.00
65173;BME280;51758;52.218;5.172;2022-10-26T01:58:24;101191.63;;;11.21;100.00
65173;BME280;51758;52.218;5.172;2022-10-26T02:00:59;101182.81;;;11.22;100.00
65173;BME280;51758;52.218;5.172;2022-10-26T02:03:40;101186.06;;;11.24;100.00
65173;BME280;51758;52.218;5.172;2022-10-26T02:06:16;101178.41;;;11.22;100.00
65173;BME280;51758;52.218;5.172;2022-10-26T02:08:59;101176.25;;;11.26;100.00
65173;BME280;51758;52.218;5.172;2022-10-26T02:11:35;101170.84;;;11.27;100.00
65173;BME280;51758;52.218;5.172;2022-10-26T02:14:12;101167.72;;;11.32;100.00
65173;BME280;51758;52.218;5.172;2022-10-26T02:16:51;101168.75;;;11.23;100.00
65173;BME280;51758;52.218;5.172;2022-10-26T02:19:29;101175.47;;;11.17;100.00
65173;BME280;51758;52.218;5.172;2022-10-26T02:22:03;101176.78;;;11.21;100.00
65173;BME280;51758;52.218;5.172;2022-10-26T02:24:33;101163.97;;;11.03;100.00
65173;BME280;51758;52.218;5.172;2022-10-26T02:27:07;101164.03;;;11.18;100.00
65173;BME280;51758;52.218;5.172;2022-10-26T02:29:38;101174.25;;;11.28;100.00
65173;BME280;51758;52.218;5.172;2022-10-26T02:32:07;101159.94;;;11.24;100.00
65173;BME280;51758;52.218;5.172;2022-10-26T02:34:37;101156.44;;;11.31;100.00
65173;BME280;51758;52.218;5.172;2022-10-26T02:37:06;101157.06;;;11.33;100.00
65173;BME280;51758;52.218;5.172;2022-10-26T02:39:35;101151.09;;;11.25;100.00
65173;BME280;51758;52.218;5.172;2022-10-26T02:42:07;101148.59;;;11.31;100.00
65173;BME280;51758;52.218;5.172;2022-10-26T02:44:40;101134.03;;;11.37;100.00
65173;BME280;51758;52.218;5.172;2022-10-26T02:47:10;101118.38;;;11.29;100.00
65173;BME280;51758;52.218;5.172;2022-10-26T02:49:39;101147.19;;;11.43;100.00
65173;BME280;51758;52.218;5.172;2022-10-26T02:52:10;101149.47;;;11.46;100.00
65173;BME280;51758;52.218;5.172;2022-10-26T02:54:47;101141.97;;;11.43;100.00
65173;BME280;51758;52.218;5.172;2022-10-26T02:57:19;101136.69;;;11.52;100.00
65173;BME280;51758;52.218;5.172;2022-10-26T02:59:50;101134.88;;;11.52;100.00
65173;BME280;51758;52.218;5.172;2022-10-26T03:02:19;101136.69;;;11.52;100.00
65173;BME280;51758;52.218;5.172;2022-10-26T03:04:50;101129.34;;;11.47;100.00
65173;BME280;51758;52.218;5.172;2022-10-26T03:07:21;101145.34;;;11.52;100.00
65173;BME280;51758;52.218;5.172;2022-10-26T03:09:49;101141.47;;;11.63;100.00
65173;BME280;51758;52.218;5.172;2022-10-26T03:12:17;101137.06;;;11.63;100.00
65173;BME280;51758;52.218;5.172;2022-10-26T03:14:44;101135.69;;;11.67;100.00
65173;BME280;51758;52.218;5.172;2022-10-26T03:17:12;101121.00;;;11.66;100.00
65173;BME280;51758;52.218;5.172;2022-10-26T03:19:40;101126.88;;;11.68;100.00
65173;BME280;51758;52.218;5.172;2022-10-26T03:22:09;101122.09;;;11.72;100.00
65173;BME280;51758;52.218;5.172;2022-10-26T03:24:36;101138.31;;;11.67;100.00
65173;BME280;51758;52.218;5.172;2022-10-26T03:27:04;101131.47;;;11.66;100.00
65173;BME280;51758;52.218;5.172;2022-10-26T03:29:31;101130.94;;;11.71;100.00
65173;BME280;51758;52.218;5.172;2022-10-26T03:31:59;101106.28;;;11.51;100.00
65173;BME280;51758;52.218;5.172;2022-10-26T03:34:27;101138.28;;;11.75;100.00
65173;BME280;51758;52.218;5.172;2022-10-26T03:36:54;101135.75;;;11.82;100.00
65173;BME280;51758;52.218;5.172;2022-10-26T03:39:23;101134.94;;;11.81;100.00
65173;BME280;51758;52.218;5.172;2022-10-26T03:41:51;101128.72;;;11.82;100.00
65173;BME280;51758;52.218;5.172;2022-10-26T03:44:19;101117.09;;;11.85;100.00
65173;BME280;51758;52.218;5.172;2022-10-26T03:46:47;101115.94;;;11.88;100.00
65173;BME280;51758;52.218;5.172;2022-10-26T03:49:14;101115.66;;;11.82;100.00
65173;BME280;51758;52.218;5.172;2022-10-26T03:51:42;101121.75;;;11.75;100.00
65173;BME280;51758;52.218;5.172;2022-10-26T03:54:10;101104.97;;;11.69;100.00
65173;BME280;51758;52.218;5.172;2022-10-26T03:56:39;101126.84;;;11.76;100.00
65173;BME280;51758;52.218;5.172;2022-10-26T03:59:06;101121.41;;;11.78;100.00
65173;BME280;51758;52.218;5.172;2022-10-26T04:01:34;101123.25;;;11.77;100.00
65173;BME280;51758;52.218;5.172;2022-10-26T04:04:01;101118.31;;;11.74;100.00
65173;BME280;51758;52.218;5.172;2022-10-26T04:06:29;101117.47;;;11.59;100.00
65173;BME280;51758;52.218;5.172;2022-10-26T04:08:57;101115.41;;;11.69;100.00
65173;BME280;51758;52.218;5.172;2022-10-26T04:11:27;101118.69;;;11.71;100.00
65173;BME280;51758;52.218;5.172;2022-10-26T04:13:56;101121.94;;;11.73;100.00
65173;BME280;51758;52.218;5.172;2022-10-26T04:16:24;101123.56;;;11.74;100.00
65173;BME280;51758;52.218;5.172;2022-10-26T04:18:58;101118.31;;;11.74;100.00
65173;BME280;51758;52.218;5.172;2022-10-26T04:21:26;101098.75;;;11.70;100.00
65173;BME280;51758;52.218;5.172;2022-10-26T04:23:54;101114.25;;;11.72;100.00
65173;BME280;51758;52.218;5.172;2022-10-26T04:26:21;101112.41;;;11.80;100.00
65173;BME280;51758;52.218;5.172;2022-10-26T04:28:49;101114.91;;;11.74;100.00
65173;BME280;51758;52.218;5.172;2022-10-26T04:31:18;101108.84;;;11.73;100.00
65173;BME280;51758;52.218;5.172;2022-10-26T04:33:45;101102.50;;;11.76;100.00
65173;BME280;51758;52.218;5.172;2022-10-26T04:36:13;101107.06;;;11.74;100.00
65173;BME280;51758;52.218;5.172;2022-10-26T04:38:40;101104.53;;;11.80;100.00
65173;BME280;51758;52.218;5.172;2022-10-26T04:41:08;101096.44;;;11.75;100.00
65173;BME280;51758;52.218;5.172;2022-10-26T04:43:35;101096.06;;;11.78;100.00
65173;BME280;51758;52.218;5.172;2022-10-26T04:46:03;101095.88;;;11.80;100.00
65173;BME280;51758;52.218;5.172;2022-10-26T04:48:32;101089.50;;;11.82;100.00
65173;BME280;51758;52.218;5.172;2022-10-26T04:51:00;101095.59;;;11.75;100.00
65173;BME280;51758;52.218;5.172;2022-10-26T04:53:27;101091.47;;;11.80;100.00
65173;BME280;51758;52.218;5.172;2022-10-26T04:55:55;101094.78;;;11.74;100.00
65173;BME280;51758;52.218;5.172;2022-10-26T04:58:23;101098.50;;;11.80;100.00
65173;BME280;51758;52.218;5.172;2022-10-26T05:00:51;101099.19;;;11.74;100.00
65173;BME280;51758;52.218;5.172;2022-10-26T05:03:19;101101.88;;;11.66;100.00
65173;BME280;51758;52.218;5.172;2022-10-26T05:05:48;101108.66;;;11.60;100.00
65173;BME280;51758;52.218;5.172;2022-10-26T05:08:15;101098.31;;;11.81;100.00
65173;BME280;51758;52.218;5.172;2022-10-26T05:10:47;101107.81;;;11.82;100.00
65173;BME280;51758;52.218;5.172;2022-10-26T05:13:15;101105.41;;;11.73;100.00
65173;BME280;51758;52.218;5.172;2022-10-26T05:15:42;101091.63;;;11.64;100.00
65173;BME280;51758;52.218;5.172;2022-10-26T05:18:10;101096.06;;;11.78;100.00
65173;BME280;51758;52.218;5.172;2022-10-26T05:20:38;101083.88;;;11.71;100.00
65173;BME280;51758;52.218;5.172;2022-10-26T05:23:10;101100.13;;;11.81;100.00
65173;BME280;51758;52.218;5.172;2022-10-26T05:25:39;101110.53;;;11.66;100.00
65173;BME280;51758;52.218;5.172;2022-10-26T05:28:09;101101.88;;;11.66;100.00
65173;BME280;51758;52.218;5.172;2022-10-26T05:30:39;101079.97;;;11.67;100.00
65173;BME280;51758;52.218;5.172;2022-10-26T05:33:08;101105.09;;;11.76;100.00
65173;BME280;51758;52.218;5.172;2022-10-26T05:35:36;101100.84;;;11.75;100.00
65173;BME280;51758;52.218;5.172;2022-10-26T05:38:09;101104.94;;;11.77;100.00
65173;BME280;51758;52.218;5.172;2022-10-26T05:40:37;101098.06;;;11.76;100.00
65173;BME280;51758;52.218;5.172;2022-10-26T05:43:05;101101.50;;;11.77;100.00
65173;BME280;51758;52.218;5.172;2022-10-26T05:45:32;101097.09;;;11.77;100.00
65173;BME280;51758;52.218;5.172;2022-10-26T05:48:00;101105.00;;;11.84;100.00
65173;BME280;51758;52.218;5.172;2022-10-26T05:50:29;101102.63;;;11.74;100.00
65173;BME280;51758;52.218;5.172;2022-10-26T05:52:56;101100.31;;;11.79;100.00
65173;BME280;51758;52.218;5.172;2022-10-26T05:55:26;101109.13;;;11.78;100.00
65173;BME280;51758;52.218;5.172;2022-10-26T05:57:54;101106.53;;;11.78;100.00
65173;BME280;51758;52.218;5.172;2022-10-26T06:00:24;101101.28;;;11.78;100.00
65173;BME280;51758;52.218;5.172;2022-10-26T06:03:02;101096.47;;;11.67;100.00
65173;BME280;51758;52.218;5.172;2022-10-26T06:05:49;101102.50;;;11.76;100.00
65173;BME280;51758;52.218;5.172;2022-10-26T06:08:18;101079.72;;;11.62;100.00
65173;BME280;51758;52.218;5.172;2022-10-26T06:10:48;101115.47;;;11.84;100.00
65173;BME280;51758;52.218;5.172;2022-10-26T06:13:17;101115.72;;;11.74;100.00
65173;BME280;51758;52.218;5.172;2022-10-26T06:15:56;101125.22;;;11.75;100.00
65173;BME280;51758;52.218;5.172;2022-10-26T06:18:36;101120.72;;;11.84;100.00
65173;BME280;51758;52.218;5.172;2022-10-26T06:21:19;101120.53;;;11.86;100.00
65173;BME280;51758;52.218;5.172;2022-10-26T06:23:55;101116.94;;;11.87;100.00
65173;BME280;51758;52.218;5.172;2022-10-26T06:26:35;101114.94;;;11.89;100.00
65173;BME280;51758;52.218;5.172;2022-10-26T06:29:13;101115.13;;;11.87;100.00
65173;BME280;51758;52.218;5.172;2022-10-26T06:31:45;101121.72;;;11.98;100.00
65173;BME280;51758;52.218;5.172;2022-10-26T06:34:19;101128.09;;;11.95;100.00
65173;BME280;51758;52.218;5.172;2022-10-26T06:36:49;101118.47;;;11.96;100.00
65173;BME280;51758;52.218;5.172;2022-10-26T06:39:16;101119.56;;;12.01;100.00
65173;BME280;51758;52.218;5.172;2022-10-26T06:41:47;101110.06;;;12.00;100.00
65173;BME280;51758;52.218;5.172;2022-10-26T06:44:21;101115.19;;;11.94;100.00
65173;BME280;51758;52.218;5.172;2022-10-26T06:46:54;101120.72;;;11.99;100.00
65173;BME280;51758;52.218;5.172;2022-10-26T06:49:29;101125.31;;;11.97;100.00
65173;BME280;51758;52.218;5.172;2022-10-26T06:51:59;101126.59;;;12.01;100.00
65173;BME280;51758;52.218;5.172;2022-10-26T06:54:39;101132.25;;;12.04;100.00
65173;BME280;51758;52.218;5.172;2022-10-26T06:57:14;101123.06;;;12.08;100.00
65173;BME280;51758;52.218;5.172;2022-10-26T06:59:44;101124.69;;;12.09;100.00
65173;BME280;51758;52.218;5.172;2022-10-26T07:02:13;101123.88;;;12.09;100.00
65173;BME280;51758;52.218;5.172;2022-10-26T07:04:42;101118.28;;;12.12;100.00
65173;BME280;51758;52.218;5.172;2022-10-26T07:07:11;101128.00;;;12.18;100.00
65173;BME280;51758;52.218;5.172;2022-10-26T07:09:40;101129.81;;;12.17;100.00
65173;BME280;51758;52.218;5.172;2022-10-26T07:12:07;101133.06;;;12.19;100.00
65173;BME280;51758;52.218;5.172;2022-10-26T07:14:36;101134.88;;;12.19;100.00
65173;BME280;51758;52.218;5.172;2022-10-26T07:17:04;101132.19;;;12.12;100.00
65173;BME280;51758;52.218;5.172;2022-10-26T07:19:32;101130.81;;;12.16;100.00
65173;BME280;51758;52.218;5.172;2022-10-26T07:22:00;101128.81;;;12.18;100.00
65173;BME280;51758;52.218;5.172;2022-10-26T07:24:28;101130.09;;;12.23;100.00
65173;BME280;51758;52.218;5.172;2022-10-26T07:26:57;101137.22;;;12.29;100.00
65173;BME280;51758;52.218;5.172;2022-10-26T07:29:25;101145.63;;;12.24;100.00
65173;BME280;51758;52.218;5.172;2022-10-26T07:31:54;101143.00;;;12.24;100.00
65173;BME280;51758;52.218;5.172;2022-10-26T07:34:22;101142.25;;;12.30;100.00
65173;BME280;51758;52.218;5.172;2022-10-26T07:36:49;101140.91;;;12.34;100.00
65173;BME280;51758;52.218;5.172;2022-10-26T07:39:17;101145.22;;;12.42;100.00
65173;BME280;51758;52.218;5.172;2022-10-26T07:41:45;101148.94;;;12.47;100.00
65173;BME280;51758;52.218;5.172;2022-10-26T07:44:13;101151.44;;;12.55;100.00
65173;BME280;51758;52.218;5.172;2022-10-26T07:46:40;101150.56;;;12.63;100.00
65173;BME280;51758;52.218;5.172;2022-10-26T07:49:09;101146.00;;;12.72;100.00
65173;BME280;51758;52.218;5.172;2022-10-26T07:51:37;101154.56;;;12.80;100.00
65173;BME280;51758;52.218;5.172;2022-10-26T07:54:04;101161.50;;;12.88;100.00
65173;BME280;51758;52.218;5.172;2022-10-26T07:56:32;101172.06;;;12.95;100.00
65173;BME280;51758;52.218;5.172;2022-10-26T07:59:00;101178.38;;;13.00;100.00
65173;BME280;51758;52.218;5.172;2022-10-26T08:01:27;101185.56;;;13.13;100.00
65173;BME280;51758;52.218;5.172;2022-10-26T08:03:55;101180.22;;;13.21;100.00
65173;BME280;51758;52.218;5.172;2022-10-26T08:06:24;101174.34;;;13.19;100.00
65173;BME280;51758;52.218;5.172;2022-10-26T08:08:52;101174.88;;;13.29;100.00
65173;BME280;51758;52.218;5.172;2022-10-26T08:11:20;101178.41;;;13.43;100.00
65173;BME280;51758;52.218;5.172;2022-10-26T08:13:50;101185.53;;;13.49;100.00
65173;BME280;51758;52.218;5.172;2022-10-26T08:16:18;101197.31;;;13.59;100.00
65173;BME280;51758;52.218;5.172;2022-10-26T08:18:46;101180.41;;;13.62;100.00
65173;BME280;51758;52.218;5.172;2022-10-26T08:21:14;101189.34;;;13.68;100.00
65173;BME280;51758;52.218;5.172;2022-10-26T08:23:52;101180.50;;;13.75;100.00
65173;BME280;51758;52.218;5.172;2022-10-26T08:26:20;101197.50;;;13.79;100.00
65173;BME280;51758;52.218;5.172;2022-10-26T08:28:48;101211.09;;;13.89;100.00
65173;BME280;51758;52.218;5.172;2022-10-26T08:31:16;101200.41;;;13.91;100.00
65173;BME280;51758;52.218;5.172;2022-10-26T08:33:44;101212.63;;;14.05;100.00
65173;BME280;51758;52.218;5.172;2022-10-26T08:36:11;101214.03;;;14.08;100.00
65173;BME280;51758;52.218;5.172;2022-10-26T08:38:46;101217.34;;;14.16;100.00
65173;BME280;51758;52.218;5.172;2022-10-26T08:41:15;101224.88;;;14.26;100.00
65173;BME280;51758;52.218;5.172;2022-10-26T08:43:46;101227.78;;;14.38;100.00
65173;BME280;51758;52.218;5.172;2022-10-26T08:46:19;101232.59;;;14.34;100.00
65173;BME280;51758;52.218;5.172;2022-10-26T08:48:50;101226.63;;;14.40;100.00
65173;BME280;51758;52.218;5.172;2022-10-26T08:51:22;101215.13;;;14.41;100.00
65173;BME280;51758;52.218;5.172;2022-10-26T08:53:55;101215.94;;;14.48;100.00
65173;BME280;51758;52.218;5.172;2022-10-26T08:56:25;101205.88;;;14.52;100.00
65173;BME280;51758;52.218;5.172;2022-10-26T08:58:56;101200.44;;;14.53;100.00
65173;BME280;51758;52.218;5.172;2022-10-26T09:01:24;101210.69;;;14.48;100.00
65173;BME280;51758;52.218;5.172;2022-10-26T09:03:52;101206.88;;;14.51;100.00
65173;BME280;51758;52.218;5.172;2022-10-26T09:06:30;101204.47;;;14.56;100.00
65173;BME280;51758;52.218;5.172;2022-10-26T09:09:07;101198.19;;;14.57;100.00
65173;BME280;51758;52.218;5.172;2022-10-26T09:11:50;101204.31;;;14.70;100.00
65173;BME280;51758;52.218;5.172;2022-10-26T09:14:30;101202.97;;;14.88;100.00
65173;BME280;51758;52.218;5.172;2022-10-26T09:17:10;101201.22;;;15.01;100.00
65173;BME280;51758;52.218;5.172;2022-10-26T09:19:58;101213.97;;;15.04;100.00
65173;BME280;51758;52.218;5.172;2022-10-26T09:22:33;101210.13;;;15.20;100.00
65173;BME280;51758;52.218;5.172;2022-10-26T09:25:15;101209.56;;;15.38;100.00
65173;BME280;51758;52.218;5.172;2022-10-26T09:27:46;101217.28;;;15.46;100.00
65173;BME280;51758;52.218;5.172;2022-10-26T09:30:18;101220.94;;;15.58;100.00
65173;BME280;51758;52.218;5.172;2022-10-26T09:32:47;101235.53;;;15.74;100.00
65173;BME280;51758;52.218;5.172;2022-10-26T09:35:18;101233.94;;;15.73;100.00
65173;BME280;51758;52.218;5.172;2022-10-26T09:37:49;101237.38;;;15.73;100.00
65173;BME280;51758;52.218;5.172;2022-10-26T09:40:22;101241.22;;;15.84;100.00
65173;BME280;51758;52.218;5.172;2022-10-26T09:42:57;101239.81;;;16.01;100.00
65173;BME280;51758;52.218;5.172;2022-10-26T09:45:29;101240.41;;;16.10;100.00
65173;BME280;51758;52.218;5.172;2022-10-26T09:48:03;101248.09;;;16.18;100.00
65173;BME280;51758;52.218;5.172;2022-10-26T09:50:34;101256.78;;;16.32;100.00
65173;BME280;51758;52.218;5.172;2022-10-26T09:53:02;101248.91;;;16.32;100.00
65173;BME280;51758;52.218;5.172;2022-10-26T09:55:31;101256.59;;;16.33;100.00
65173;BME280;51758;52.218;5.172;2022-10-26T09:58:05;101273.59;;;16.44;100.00
65173;BME280;51758;52.218;5.172;2022-10-26T10:00:36;101265.91;;;16.36;100.00
65173;BME280;51758;52.218;5.172;2022-10-26T10:03:17;101269.72;;;16.46;100.00
65173;BME280;51758;52.218;5.172;2022-10-26T10:05:45;101266.88;;;16.48;100.00
65173;BME280;51758;52.218;5.172;2022-10-26T10:08:20;101266.28;;;16.53;100.00
65173;BME280;51758;52.218;5.172;2022-10-26T10:10:56;101271.56;;;16.46;100.00
65173;BME280;51758;52.218;5.172;2022-10-26T10:13:27;101281.31;;;16.45;100.00
65173;BME280;51758;52.218;5.172;2022-10-26T10:16:01;101274.38;;;16.58;100.00
65173;BME280;51758;52.218;5.172;2022-10-26T10:18:30;101285.94;;;16.50;100.00
65173;BME280;51758;52.218;5.172;2022-10-26T10:20:58;101288.78;;;16.68;100.00
65173;BME280;51758;52.218;5.172;2022-10-26T10:23:29;101288.16;;;16.66;100.00
65173;BME280;51758;52.218;5.172;2022-10-26T10:26:02;101294.06;;;16.68;100.00
65173;BME280;51758;52.218;5.172;2022-10-26T10:28:32;101297.47;;;16.75;100.00
65173;BME280;51758;52.218;5.172;2022-10-26T10:31:01;101305.97;;;16.84;100.00
65173;BME280;51758;52.218;5.172;2022-10-26T10:33:34;101310.41;;;16.97;100.00
65173;BME280;51758;52.218;5.172;2022-10-26T10:36:06;101302.81;;;17.13;100.00
65173;BME280;51758;52.218;5.172;2022-10-26T10:38:40;101318.38;;;17.28;100.00
65173;BME280;51758;52.218;5.172;2022-10-26T10:41:15;101327.66;;;17.37;100.00
65173;BME280;51758;52.218;5.172;2022-10-26T10:43:48;101326.09;;;17.23;100.00
65173;BME280;51758;52.218;5.172;2022-10-26T10:46:18;101338.22;;;17.37;100.00
65173;BME280;51758;52.218;5.172;2022-10-26T10:48:47;101331.25;;;17.05;100.00
65173;BME280;51758;52.218;5.172;2022-10-26T10:51:18;101348.66;;;17.19;100.00
65173;BME280;51758;52.218;5.172;2022-10-26T10:53:49;101353.56;;;17.09;100.00
65173;BME280;51758;52.218;5.172;2022-10-26T10:56:27;101353.75;;;17.14;100.00
65173;BME280;51758;52.218;5.172;2022-10-26T10:59:07;101367.19;;;17.06;100.00
65173;BME280;51758;52.218;5.172;2022-10-26T11:01:42;101359.69;;;16.96;100.00
65173;BME280;51758;52.218;5.172;2022-10-26T11:04:37;101375.84;;;17.19;100.00
65173;BME280;51758;52.218;5.172;2022-10-26T11:07:08;101381.13;;;17.19;100.00
65173;BME280;51758;52.218;5.172;2022-10-26T11:09:40;101375.66;;;17.21;100.00
65173;BME280;51758;52.218;5.172;2022-10-26T11:12:14;101384.63;;;17.00;100.00
65173;BME280;51758;52.218;5.172;2022-10-26T11:14:47;101376.50;;;17.02;100.00
65173;BME280;51758;52.218;5.172;2022-10-26T11:17:19;101383.44;;;16.90;100.00
65173;BME280;51758;52.218;5.172;2022-10-26T11:19:52;101387.28;;;16.94;100.00
65173;BME280;51758;52.218;5.172;2022-10-26T11:22:25;101382.59;;;17.02;100.00
65173;BME280;51758;52.218;5.172;2022-10-26T11:24:57;101382.19;;;17.05;100.00
65173;BME280;51758;52.218;5.172;2022-10-26T11:27:32;101384.00;;;17.05;100.00
65173;BME280;51758;52.218;5.172;2022-10-26T11:30:05;101394.00;;;16.96;100.00
65173;BME280;51758;52.218;5.172;2022-10-26T11:32:36;101396.63;;;16.96;100.00
65173;BME280;51758;52.218;5.172;2022-10-26T11:35:12;101385.03;;;16.97;100.00
65173;BME280;51758;52.218;5.172;2022-10-26T11:37:47;101393.16;;;17.02;100.00
65173;BME280;51758;52.218;5.172;2022-10-26T11:40:23;101377.13;;;17.04;100.00
65173;BME280;51758;52.218;5.172;2022-10-26T11:43:00;101374.44;;;17.17;100.00
65173;BME280;51758;52.218;5.172;2022-10-26T11:45:34;101395.72;;;17.29;100.00
65173;BME280;51758;52.218;5.172;2022-10-26T11:48:13;101388.03;;;17.21;100.00
65173;BME280;51758;52.218;5.172;2022-10-26T11:50:44;101394.69;;;17.23;100.00
65173;BME280;51758;52.218;5.172;2022-10-26T11:53:16;101405.97;;;17.50;100.00
65173;BME280;51758;52.218;5.172;2022-10-26T11:55:48;101412.03;;;17.64;100.00
65173;BME280;51758;52.218;5.172;2022-10-26T11:58:17;101414.94;;;17.42;100.00
65173;BME280;51758;52.218;5.172;2022-10-26T12:00:50;101410.72;;;17.35;100.00
65173;BME280;51758;52.218;5.172;2022-10-26T12:03:22;101425.09;;;17.39;100.00
65173;BME280;51758;52.218;5.172;2022-10-26T12:05:52;101415.50;;;17.58;100.00
65173;BME280;51758;52.218;5.172;2022-10-26T12:08:23;101413.84;;;17.70;100.00
65173;BME280;51758;52.218;5.172;2022-10-26T12:11:00;101410.19;;;17.71;100.00
65173;BME280;51758;52.218;5.172;2022-10-26T12:13:40;101409.94;;;17.79;100.00
65173;BME280;51758;52.218;5.172;2022-10-26T12:16:16;101417.34;;;17.57;100.00
65173;BME280;51758;52.218;5.172;2022-10-26T12:18:51;101412.41;;;17.61;100.00
65173;BME280;51758;52.218;5.172;2022-10-26T12:21:24;101421.97;;;17.68;100.00
65173;BME280;51758;52.218;5.172;2022-10-26T12:23:56;101418.13;;;17.71;100.00
65173;BME280;51758;52.218;5.172;2022-10-26T12:26:51;101421.72;;;17.76;100.00
65173;BME280;51758;52.218;5.172;2022-10-26T12:29:36;101432.56;;;17.55;100.00
65173;BME280;51758;52.218;5.172;2022-10-26T12:41:31;101429.28;;;18.04;100.00
65173;BME280;51758;52.218;5.172;2022-10-26T12:44:35;101429.22;;;18.17;100.00
65173;BME280;51758;52.218;5.172;2022-10-26T12:47:04;101406.53;;;18.03;100.00
65173;BME280;51758;52.218;5.172;2022-10-26T12:52:41;101436.25;;;18.30;100.00
65173;BME280;51758;52.218;5.172;2022-10-26T12:58:52;101434.41;;;18.31;100.00
65173;BME280;51758;52.218;5.172;2022-10-26T13:01:41;101436.03;;;18.00;100.00
65173;BME280;51758;52.218;5.172;2022-10-26T13:04:25;101435.44;;;17.98;100.00
65173;BME280;51758;52.218;5.172;2022-10-26T13:07:15;101435.84;;;17.95;100.00
65173;BME280;51758;52.218;5.172;2022-10-26T13:09:52;101448.06;;;17.96;100.00
65173;BME280;51758;52.218;5.172;2022-10-26T13:12:21;101442.38;;;17.86;100.00
65173;BME280;51758;52.218;5.172;2022-10-26T13:14:56;101447.78;;;18.04;100.00
65173;BME280;51758;52.218;5.172;2022-10-26T13:17:28;101459.31;;;18.16;100.00
65173;BME280;51758;52.218;5.172;2022-10-26T13:19:59;101461.41;;;18.01;100.00